East Bank, West Virginia
Current Conditions -  °F | °C
As of 8:54 PM on Tuesday 25 Nov 2014 (Local Time) from KCRW Reporting Station
Broken Clouds Broken Clouds  
Wind Chill: 45°   Ceiling: 18000
Heat Index: 45°   Visibility: 10mi
Dew Point: 27°   Wind: 3mph
Humidity: 49%   Direction: NA
Pressure: 30.13"   Gusts: NA
Location:  38.22°N, 81.44°W
Report Text: KCRW 260154Z VRB03KT 10SM BKN180 07/M03 A3013 RMK AO2 SLP206 T00721028
Loading
Personal Weather Stations






























Interactive Weather Map New forecast layout! Learn more

10-Day Weather Forecast

Advertisements
Track Severe Weather on mobile